Flight Track Log - Related Links

Times and Time Zones

All times are in EDT time to prevent confusion due to time zone crossing. See the CCA950 flight status page for this flight to view local times or setup timezone preferences in your user account.

Time Position Orientation Groundspeed Altitude Reporting Facility
EDT Latitude Longitude Course Direction KTS MPH feet Rate Location/Type
Mon 03:27:47 PM 45.6630 8.7110 334° Northwest 178 205 2,300  Level FlightAware ADS-B
Mon 03:28:12 PM 45.6810 8.6920 324° Northwest 182 209 3,000 1,855 Climbing FlightAware ADS-B
Mon 03:28:42 PM 45.7000 8.6690 320° Northwest 177 204 4,000 1,600 Climbing FlightAware ADS-B
Mon 03:29:12 PM 45.7180 8.6460 318° Northwest 187 215 4,600 1,091 Climbing FlightAware ADS-B
Mon 03:29:37 PM 45.7380 8.6310 332° Northwest 216 249 5,000 982 Climbing FlightAware ADS-B
Mon 03:30:07 PM 45.7620 8.6580 38° Northeast 248 285 5,500 1,300 Climbing FlightAware ADS-B
Mon 03:30:37 PM 45.7740 8.7040 69° East 269 310 6,300 2,509 Climbing FlightAware ADS-B
Mon 03:31:02 PM 45.7730 8.7530 92° East 265 305 7,800 2,727 Climbing FlightAware ADS-B
Mon 03:31:32 PM 45.7740 8.8060 88° East 276 318 8,800 2,182 Climbing FlightAware ADS-B
Mon 03:31:57 PM 45.7760 8.8520 86° East 281 323 9,800 2,571 Climbing FlightAware ADS-B
Mon 03:32:42 PM 45.7790 8.9350 87° East 283 326 11,800 2,259 Climbing FlightAware ADS-B
Mon 03:33:22 PM 45.7810 9.0130 88° East 299 344 13,000 1,971 Climbing FlightAware ADS-B
Mon 03:33:52 PM 45.7820 9.0720 89° East 304 350 14,100 2,229 Climbing FlightAware ADS-B
Mon 03:34:32 PM 45.7840 9.1520 88° East 307 353 15,600 2,259 Climbing FlightAware ADS-B
Mon 03:35:17 PM 45.7860 9.2430 88° East 308 354 17,300 2,259 Climbing FlightAware ADS-B
Mon 03:35:57 PM 45.7930 9.3230 83° East 302 348 18,800 1,575 Climbing FlightAware ADS-B
Mon 03:36:37 PM 45.8120 9.4020 71° East 330 380 19,400 1,482 Climbing FlightAware ADS-B
Mon 03:37:22 PM 45.8360 9.5000 71° East 337 388 20,900 1,976 Climbing FlightAware ADS-B
Mon 03:38:02 PM 45.8560 9.5840 71° East 336 387 22,200 1,624 Climbing FlightAware ADS-B
Mon 03:38:47 PM 45.8780 9.6780 71° East 349 402 23,200 1,200 Climbing FlightAware ADS-B
Mon 03:39:27 PM 45.8990 9.7700 72° East 363 418 23,900 1,200 Climbing FlightAware ADS-B
Mon 03:40:07 PM 45.9210 9.8610 71° East 370 426 24,800 1,341 Climbing FlightAware ADS-B
Mon 03:40:52 PM 45.9450 9.9650 72° East 377 434 25,800 1,271 Climbing FlightAware ADS-B
Mon 03:41:32 PM 45.9680 10.0630 71° East 382 440 26,600 1,500 Climbing FlightAware ADS-B
Mon 03:42:12 PM 45.9900 10.1590 72° East 377 434 27,800 1,553 Climbing FlightAware ADS-B
Mon 03:42:57 PM 46.0140 10.2640 72° East 376 433 28,800 933 Climbing FlightAware ADS-B
Mon 03:43:42 PM 46.0380 10.3690 72° East 391 450 29,200 494 Climbing FlightAware ADS-B
Mon 03:44:22 PM 46.0620 10.4740 72° East 406 467 29,500 600 Climbing FlightAware ADS-B
Mon 03:45:02 PM 46.0850 10.5770 72° East 414 476 30,000 706 Climbing FlightAware ADS-B
Mon 03:45:47 PM 46.1120 10.6950 72° East 423 487 30,500 706 Climbing FlightAware ADS-B
Mon 03:46:27 PM 46.1370 10.8050 72° East 428 493 31,000 635 Climbing FlightAware ADS-B
Mon 03:47:12 PM 46.1640 10.9300 73° East 437 503 31,400 706 Climbing FlightAware ADS-B
Mon 03:47:52 PM 46.1880 11.0360 72° East 437 503 32,000 960 Climbing FlightAware ADS-B
Mon 03:48:27 PM 46.2190 11.1250 63° Northeast 436 502 32,600 1,059 Climbing FlightAware ADS-B
Mon 03:49:17 PM 46.2640 11.2580 64° Northeast 427 491 33,500 800 Climbing FlightAware ADS-B
Mon 03:49:57 PM 46.2990 11.3620 64° Northeast 422 486 33,800 375 Climbing FlightAware ADS-B
Mon 03:50:37 PM 46.3330 11.4630 64° Northeast 423 487 34,000 141 Climbing FlightAware ADS-B
Mon 03:51:22 PM 46.3710 11.5760 64° Northeast 423 487 34,000  Level FlightAware ADS-B
Mon 03:51:57 PM 46.4020 11.6690 64° Northeast 425 489 34,000  Level FlightAware ADS-B
Mon 03:52:47 PM 46.4440 11.7950 64° Northeast 426 490 34,000  Level FlightAware ADS-B
Mon 03:53:27 PM 46.4780 11.8970 64° Northeast 430 495 34,000  Level FlightAware ADS-B
Mon 03:54:07 PM 46.5130 12.0060 65° Northeast 430 495 34,000  Level FlightAware ADS-B
Mon 03:56:00 PM 46.6519 12.2636 52° Northeast  Level Estimated
Mon 03:56:47 PM 46.6460 12.4110 52° Northeast 433 498 34,000  Level FlightAware ADS-B
Mon 03:57:00 PM 46.7254 12.4009 52° Northeast  Level Estimated
Mon 03:59:00 PM 46.8084 12.7162 52° Northeast  Level Estimated
Mon 04:00:00 PM 46.8814 12.8545 52° Northeast  Level Estimated
Mon 04:01:00 PM 46.9543 12.9932 52° Northeast  Level Estimated
Mon 04:01:22 PM 46.8350 13.1790 52° Northeast 441 507 34,000  Level FlightAware ADS-B
Mon 04:03:00 PM 46.9534 13.4060 53° Northeast  Level Estimated
Mon 04:04:00 PM 47.0257 13.5455 53° Northeast  Level Estimated
Mon 04:05:00 PM 47.0978 13.6854 53° Northeast  Level Estimated
Mon 04:06:00 PM 47.1697 13.8256 53° Northeast  Level Estimated
Mon 04:06:02 PM 47.0050 13.9700 53° Northeast 442 509 34,000  Level FlightAware ADS-B
Mon 04:06:42 PM 47.0270 14.0750 73° East 444 511 34,000  Level FlightAware ADS-B
Mon 04:07:47 PM 47.0720 14.2940 73° East 445 512 34,000  Level FlightAware ADS-B
Mon 04:08:37 PM 47.0990 14.4250 73° East 446 513 34,000  Level FlightAware ADS-B
Mon 04:09:17 PM 47.1330 14.5280 64° Northeast 445 512 34,000  Level FlightAware ADS-B
Mon 04:10:02 PM 47.1800 14.6510 61° Northeast 442 509 34,000  Level FlightAware ADS-B
Mon 04:10:57 PM 47.2360 14.7960 60° Northeast 441 507 34,000  Level FlightAware ADS-B
Mon 04:11:37 PM 47.2760 14.9030 61° Northeast 441 507 34,000  Level FlightAware ADS-B
Mon 04:12:32 PM 47.3290 15.0440 61° Northeast 442 509 34,000  Level FlightAware ADS-B
Mon 04:13:17 PM 47.3750 15.1670 61° Northeast 444 511 34,000  Level FlightAware ADS-B
Mon 04:13:57 PM 47.4160 15.2760 61° Northeast 443 510 34,000  Level FlightAware ADS-B
Mon 04:14:42 PM 47.4570 15.3860 61° Northeast 444 511 34,000  Level FlightAware ADS-B
Mon 04:15:22 PM 47.4980 15.4980 62° Northeast 443 510 34,000  Level FlightAware ADS-B
Mon 04:16:07 PM 47.5460 15.6290 61° Northeast 443 510 34,000  Level FlightAware ADS-B
Mon 04:16:47 PM 47.5860 15.7370 61° Northeast 443 510 34,000  Level FlightAware ADS-B
Mon 04:17:27 PM 47.6260 15.8460 61° Northeast 444 511 34,000  Level FlightAware ADS-B
Mon 04:18:12 PM 47.6680 15.9630 62° Northeast 446 513 34,000  Level FlightAware ADS-B
Mon 04:18:52 PM 47.7080 16.0720 61° Northeast 446 513 34,000  Level FlightAware ADS-B
Mon 04:19:32 PM 47.7470 16.1810 62° Northeast 447 514 34,000  Level FlightAware ADS-B
Mon 04:20:17 PM 47.7880 16.2950 62° Northeast 449 517 34,000  Level FlightAware ADS-B
Mon 04:20:57 PM 47.8280 16.4070 62° Northeast 450 518 34,000  Level FlightAware ADS-B
Mon 04:21:37 PM 47.8660 16.5150 62° Northeast 452 520 34,000  Level FlightAware ADS-B
Mon 04:22:22 PM 47.9120 16.6440 62° Northeast 450 518 34,000  Level FlightAware ADS-B
Mon 04:23:02 PM 47.9410 16.7590 69° East 450 518 34,000  Level FlightAware ADS-B
Mon 04:23:47 PM 47.9630 16.8910 76° East 451 519 34,000  Level FlightAware ADS-B
Mon 04:24:27 PM 47.9860 17.0120 74° East 450 518 34,000  Level FlightAware ADS-B
Mon 04:25:07 PM 48.0070 17.1300 75° East 447 514 34,000 71 Level FlightAware ADS-B
Mon 04:25:52 PM 48.0320 17.2680 75° East 445 512 34,100 353 Climbing FlightAware ADS-B
Mon 04:26:32 PM 48.0530 17.3830 75° East 445 512 34,500 494 Climbing FlightAware ADS-B
Mon 04:27:17 PM 48.0770 17.5220 75° East 448 516 34,800 353 Climbing FlightAware ADS-B
Mon 04:27:57 PM 48.0980 17.6400 75° East 449 517 35,000 150 Climbing FlightAware ADS-B
Mon 04:28:37 PM 48.1190 17.7590 75° East 450 518 35,000  Level FlightAware ADS-B
Mon 04:29:22 PM 48.1430 17.8940 75° East 449 517 35,000  Level FlightAware ADS-B
Mon 04:30:02 PM 48.1640 18.0150 75° East 447 514 35,000  Level FlightAware ADS-B
Mon 04:30:47 PM 48.1860 18.1450 76° East 447 514 35,000  Level FlightAware ADS-B
Mon 04:31:27 PM 48.2070 18.2660 75° East 446 513 35,000  Level FlightAware ADS-B
Mon 04:32:12 PM 48.2300 18.4030 76° East 445 512 35,000  Level FlightAware ADS-B
Mon 04:32:52 PM 48.2500 18.5230 76° East 446 513 35,000  Level FlightAware ADS-B
Mon 04:33:37 PM 48.2720 18.6560 76° East 448 516 35,000  Level FlightAware ADS-B
Mon 04:34:17 PM 48.2920 18.7740 76° East 450 518 35,000  Level FlightAware ADS-B
Mon 04:35:02 PM 48.3140 18.9120 76° East 450 518 35,000  Level FlightAware ADS-B
Mon 04:35:42 PM 48.3330 19.0270 76° East 450 518 35,000  Level FlightAware ADS-B
Mon 04:36:22 PM 48.3540 19.1540 76° East 444 511 35,000  Level FlightAware ADS-B
Mon 04:37:07 PM 48.3750 19.2880 77° East 444 511 35,000  Level FlightAware ADS-B
Mon 04:37:47 PM 48.3940 19.4080 77° East 445 512 35,000  Level FlightAware ADS-B
Mon 04:38:32 PM 48.4160 19.5420 76° East 445 512 35,000  Level FlightAware ADS-B
Mon 04:39:12 PM 48.4350 19.6620 77° East 444 511 35,000  Level FlightAware ADS-B
Mon 04:39:57 PM 48.4540 19.7900 77° East 445 512 35,000  Level FlightAware ADS-B
Mon 04:40:37 PM 48.4740 19.9170 77° East 445 512 35,000  Level FlightAware ADS-B
Mon 04:41:17 PM 48.4920 20.0340 77° East 446 513 35,000  Level FlightAware ADS-B
Mon 04:42:02 PM 48.5140 20.1770 77° East 446 513 35,000  Level FlightAware ADS-B
Mon 04:42:42 PM 48.5320 20.2970 77° East 446 513 35,000  Level FlightAware ADS-B
Mon 04:43:22 PM 48.5500 20.4190 77° East 446 513 35,000  Level FlightAware ADS-B
Mon 04:44:07 PM 48.5700 20.5530 77° East 448 516 35,000  Level FlightAware ADS-B
Mon 04:44:42 PM 48.5860 20.6580 77° East 449 517 35,000  Level FlightAware ADS-B
Mon 04:45:32 PM 48.6090 20.8150 77° East 450 518 35,000  Level FlightAware ADS-B
Mon 04:46:12 PM 48.6260 20.9380 78° East 451 519 35,000  Level FlightAware ADS-B
Mon 04:46:57 PM 48.6460 21.0740 77° East 450 518 35,000  Level FlightAware ADS-B
Mon 04:47:37 PM 48.6640 21.2000 78° East 450 518 35,000  Level FlightAware ADS-B
Mon 04:48:17 PM 48.6800 21.3170 78° East 451 519 35,000  Level FlightAware ADS-B
Mon 04:49:02 PM 48.7010 21.4620 78° East 452 520 35,000  Level FlightAware ADS-B
Mon 04:49:42 PM 48.7170 21.5840 79° East 452 520 35,000  Level FlightAware ADS-B
Mon 04:50:22 PM 48.7350 21.7080 78° East 452 520 35,000  Level FlightAware ADS-B
Mon 04:51:07 PM 48.7530 21.8450 79° East 453 521 35,000  Level FlightAware ADS-B
Mon 04:51:47 PM 48.7700 21.9690 78° East 453 521 35,000  Level FlightAware ADS-B
Mon 04:52:32 PM 48.7890 22.1130 79° East 454 522 35,000  Level FlightAware ADS-B
Mon 04:53:12 PM 48.8050 22.2360 79° East 452 520 35,000  Level FlightAware ADS-B
Mon 04:53:57 PM 48.8230 22.3780 79° East 449 517 35,000  Level FlightAware ADS-B
Mon 04:54:37 PM 48.8280 22.4990 86° East 447 514 35,000  Level FlightAware ADS-B
Mon 04:55:17 PM 48.8320 22.6240 87° East 446 513 35,000  Level FlightAware ADS-B
Mon 04:55:57 PM 48.8370 22.7490 86° East 446 513 35,000  Level FlightAware ADS-B
Mon 04:58:00 PM 48.9634 23.0681 59° Northeast  Level Estimated
Mon 04:59:00 PM 49.0248 23.2244 59° Northeast  Level Estimated
Mon 04:59:12 PM 48.8550 23.3600 59° Northeast 450 518 35,000  Level FlightAware ADS-B
Mon 04:59:47 PM 48.8580 23.4690 88° East 455 524 35,000  Level FlightAware ADS-B
Mon 05:02:00 PM 48.9930 23.8158 59° Northeast  Level Estimated
Mon 05:03:00 PM 49.0535 23.9729 59° Northeast  Level Estimated
Mon 05:04:00 PM 49.1139 24.1304 60° Northeast  Level Estimated
Mon 05:05:00 PM 49.1740 24.2882 60° Northeast  Level Estimated
Mon 05:05:12 PM 48.8810 24.5120 60° Northeast 459 528 35,000  Level FlightAware ADS-B
Mon 05:05:47 PM 48.8870 24.6180 85° East 457 526 35,000  Level FlightAware ADS-B
Mon 05:08:00 PM 49.0193 24.9674 60° Northeast  Level Estimated
Mon 05:09:00 PM 49.0786 25.1257 60° Northeast  Level Estimated
Mon 05:10:00 PM 49.1377 25.2843 60° Northeast  Level Estimated
Mon 05:10:57 PM 49.1260 25.5250 60° Northeast 452 520 35,000  Level FlightAware ADS-B
Mon 05:11:00 PM 49.1966 25.4433 60° Northeast  Level Estimated
Mon 05:11:37 PM 49.1600 25.6420 66° East 451 519 35,000  Level FlightAware ADS-B
Mon 05:12:17 PM 49.1930 25.7570 66° East 450 518 35,000  Level FlightAware ADS-B
Mon 05:13:02 PM 49.2290 25.8840 66° East 449 517 35,000  Level FlightAware ADS-B
Mon 05:14:12 PM 49.2840 26.0780 66° East 448 516 35,000  Level FlightAware ADS-B
Mon 05:15:22 PM 49.3420 26.2830 66° East 449 517 35,000  Level FlightAware ADS-B
Mon 05:15:52 PM 49.3700 26.3870 68° East 448 516 35,000  Level FlightAware ADS-B
Mon 05:16:47 PM 49.4100 26.5290 67° East 448 516 35,000  Level FlightAware ADS-B
Mon 05:17:27 PM 49.4450 26.6580 67° East 447 514 35,000  Level FlightAware ADS-B
Mon 05:18:07 PM 49.4780 26.7800 67° East 448 516 35,000  Level FlightAware ADS-B
Mon 05:18:52 PM 49.5130 26.9100 67° East 448 516 35,000  Level FlightAware ADS-B
Mon 05:19:32 PM 49.5410 27.0120 67° East 447 514 35,000  Level FlightAware ADS-B
Mon 05:22:00 PM 49.6804 27.4127 62° Northeast  Level Estimated
Mon 05:23:00 PM 49.7366 27.5758 62° Northeast  Level Estimated
Mon 05:23:47 PM 49.7430 27.7870 62° Northeast 454 522 35,000  Level FlightAware ADS-B
Mon 05:24:27 PM 49.7580 27.9150 80° East 457 526 35,000  Level FlightAware ADS-B
Mon 05:25:07 PM 49.7690 28.0440 82° East 455 524 35,000  Level FlightAware ADS-B
Mon 05:25:52 PM 49.7840 28.1900 81° East 455 524 35,000  Level FlightAware ADS-B
Mon 05:26:32 PM 49.7970 28.3180 81° East 454 522 35,000  Level FlightAware ADS-B
Mon 05:29:00 PM 49.9323 28.7242 63° Northeast  Level Estimated
Mon 05:29:57 PM 49.8600 28.9760 63° Northeast 452 520 35,000  Level FlightAware ADS-B
Mon 05:30:00 PM 49.9868 28.8895 63° Northeast  Level Estimated
Mon 05:30:37 PM 49.8720 29.1020 82° East 453 521 35,000  Level FlightAware ADS-B
Mon 05:31:47 PM 49.8930 29.3290 82° East 454 522 35,000  Level FlightAware ADS-B
Mon 05:32:27 PM 49.9040 29.4580 82° East 453 521 35,000  Level FlightAware ADS-B
Mon 05:33:07 PM 49.9160 29.5850 82° East 453 521 35,000  Level FlightAware ADS-B
Mon 05:33:47 PM 49.9270 29.7170 83° East 453 521 35,000  Level FlightAware ADS-B
Mon 05:34:32 PM 49.9400 29.8620 82° East 452 520 35,000  Level FlightAware ADS-B
Mon 05:35:12 PM 49.9440 29.9900 87° East 457 526 35,000  Level FlightAware ADS-B
Mon 05:35:52 PM 49.9460 30.1230 89° East 455 524 35,000  Level FlightAware ADS-B
Mon 05:36:37 PM 49.9500 30.2680 87° East 454 522 35,000  Level FlightAware ADS-B
Mon 05:37:17 PM 49.9530 30.3980 88° East 454 522 35,000  Level FlightAware ADS-B
Mon 05:38:02 PM 49.9570 30.5460 88° East 454 522 35,000  Level FlightAware ADS-B
Mon 05:38:42 PM 49.9590 30.6740 89° East 454 522 35,000  Level FlightAware ADS-B
Mon 05:39:27 PM 49.9620 30.8210 88° East 454 522 35,000  Level FlightAware ADS-B
Mon 05:40:07 PM 49.9640 30.9510 89° East 454 522 35,000  Level FlightAware ADS-B
Mon 05:40:47 PM 49.9660 31.0800 89° East 454 522 35,000  Level FlightAware ADS-B
Mon 05:41:32 PM 49.9680 31.2250 89° East 454 522 35,000  Level FlightAware ADS-B
Mon 05:42:12 PM 49.9700 31.3570 89° East 455 524 35,000  Level FlightAware ADS-B
Mon 05:42:57 PM 49.9720 31.5050 89° East 455 524 35,000  Level FlightAware ADS-B
Mon 05:45:00 PM 50.0770 31.8494 64° Northeast  Level Estimated
Mon 05:45:32 PM 49.9760 32.0060 64° Northeast 454 522 35,000  Level FlightAware ADS-B
Mon 05:46:17 PM 49.9770 32.1570 89° East 455 524 35,000  Level FlightAware ADS-B
Mon 05:46:57 PM 49.9780 32.2870 89° East 456 525 35,000  Level FlightAware ADS-B
Mon 05:47:42 PM 49.9790 32.4340 89° East 457 526 35,000  Level FlightAware ADS-B
Mon 05:48:22 PM 49.9790 32.5580 90° East 458 527 35,000  Level FlightAware ADS-B
Mon 05:49:02 PM 49.9790 32.6970 90° East 458 527 35,000  Level FlightAware ADS-B
Mon 05:49:47 PM 49.9790 32.8430 90° East 458 527 35,000  Level FlightAware ADS-B
Mon 05:50:27 PM 49.9790 32.9740 90° East 458 527 35,000  Level FlightAware ADS-B
Mon 05:51:32 PM 49.9790 33.1690 90° East 460 529 35,000  Level FlightAware ADS-B
Mon 05:52:17 PM 49.9790 33.3180 90° East 459 528 35,000  Level FlightAware ADS-B
Mon 05:52:57 PM 49.9780 33.4600 91° East 459 528 35,000  Level FlightAware ADS-B
Mon 05:53:42 PM 49.9770 33.6020 91° East 462 532 35,000  Level FlightAware ADS-B
Mon 05:54:17 PM 49.9760 33.7290 91° East 463 533 35,000  Level FlightAware ADS-B
Mon 05:55:02 PM 49.9750 33.8800 91° East 464 534 35,000  Level FlightAware ADS-B
Mon 05:55:47 PM 49.9740 34.0310 91° East 466 536 35,000  Level FlightAware ADS-B
Mon 05:56:32 PM 49.9720 34.1740 91° East 465 535 35,000  Level FlightAware ADS-B
Mon 05:57:12 PM 49.9700 34.3180 91° East 465 535 35,000  Level FlightAware ADS-B
Mon 05:58:52 PM 49.9660 34.6380 91° East 466 536 35,000  Level FlightAware ADS-B
Mon 05:59:27 PM 49.9640 34.7450 92° East 466 536 35,000  Level FlightAware ADS-B
Mon 06:00:17 PM 49.9620 34.9250 91° East 466 536 35,000 -71 Level FlightAware ADS-B
Mon 06:00:52 PM 49.9600 35.0330 92° East 466 536 34,900  Descending FlightAware ADS-B
Mon 06:03:00 PM 50.0608 35.3973 67° East  Level Estimated
Mon 06:04:00 PM 50.1077 35.5686 67° East  Level Estimated
Mon 06:04:27 PM 49.9440 35.7650 67° East 474 545 35,000  Level FlightAware ADS-B
Mon 06:05:12 PM 49.9400 35.9120 92° East 474 545 35,000  Level FlightAware ADS-B
Mon 06:07:00 PM 50.0234 36.2203 67° East  Level Estimated
Mon 06:08:00 PM 50.0694 36.3920 67° East  Level Estimated
Mon 06:09:00 PM 50.1151 36.5641 67° East  Level Estimated
Mon 06:10:00 PM 50.1606 36.7365 68° East  Level Estimated
Mon 06:11:00 PM 50.2058 36.9092 68° East  Level Estimated
Mon 06:11:22 PM 50.1480 37.0740 68° East 456 525 35,000  Level FlightAware ADS-B
Mon 06:12:02 PM 50.1810 37.1950 67° East 455 524 35,000 141 Level FlightAware ADS-B
Mon 06:12:47 PM 50.2200 37.3360 67° East 455 524 35,200 424 Climbing FlightAware ADS-B
Mon 06:13:27 PM 50.2520 37.4560 67° East 459 528 35,600 494 Climbing FlightAware ADS-B
Mon 06:14:12 PM 50.2900 37.5940 67° East 456 525 35,900 494 Climbing FlightAware ADS-B
Mon 06:14:52 PM 50.3290 37.7000 60° Northeast 454 522 36,300 525 Climbing FlightAware ADS-B
Mon 06:15:32 PM 50.3810 37.8090 53° Northeast 458 527 36,600 400 Climbing FlightAware ADS-B
Mon 06:16:07 PM 50.4240 37.8960 52° Northeast 458 527 36,800 565 Climbing FlightAware ADS-B
Mon 06:16:57 PM 50.4940 38.0360 52° Northeast 458 527 37,400 568 Climbing FlightAware ADS-B
Mon 06:17:42 PM 50.5490 38.1490 53° Northeast 458 527 37,700 424 Climbing FlightAware ADS-B
Mon 06:18:22 PM 50.6050 38.2630 52° Northeast 458 527 38,000 400 Climbing FlightAware ADS-B
Mon 06:18:57 PM 50.6470 38.3480 52° Northeast 458 527 38,200 420 Climbing FlightAware ADS-B
Mon 06:20:02 PM 50.7310 38.5180 52° Northeast 458 527 38,700 457 Climbing FlightAware ADS-B
Mon 06:20:42 PM 50.7860 38.6310 52° Northeast 458 527 39,000 316 Climbing FlightAware ADS-B
Mon 06:21:37 PM 50.8530 38.7670 52° Northeast 458 527 39,200 126 Climbing FlightAware ADS-B
Mon 06:22:17 PM 50.8970 38.8570 52° Northeast 458 527 39,200  Level FlightAware ADS-B
Mon 06:22:57 PM 50.9420 38.9470 52° Northeast 458 527 39,200  Level FlightAware ADS-B
Mon 06:23:37 PM 50.9860 39.0370 52° Northeast 458 527 39,200  Level FlightAware ADS-B
Mon 06:24:27 PM 51.0410 39.1500 52° Northeast 458 527 39,200  Level FlightAware ADS-B
Mon 06:26:00 PM 51.1048 39.4267 70° East  Level Estimated
Mon 06:27:00 PM 51.1455 39.6057 70° East  Level Estimated
Mon 06:28:00 PM 51.1860 39.7849 70° East  Level Estimated
Mon 06:28:37 PM 51.3190 39.7160 70° East 458 527 39,200  Level FlightAware ADS-B
Mon 06:29:17 PM 51.4140 40.0640 66° East 462 532 37,000 -1,650 Descending FlightAware ADS-B
Mon 06:29:57 PM 51.4620 40.1750 55° Northeast 461 531 37,000  Level FlightAware ADS-B
Mon 06:30:42 PM 51.5160 40.2990 55° Northeast 462 532 37,000  Level FlightAware ADS-B
Mon 06:31:22 PM 51.5660 40.4150 55° Northeast 464 534 37,000  Level FlightAware ADS-B
Mon 06:32:02 PM 51.6140 40.5270 55° Northeast 464 534 37,000  Level FlightAware ADS-B
Mon 06:32:42 PM 51.6600 40.6320 55° Northeast 466 536 37,000  Level FlightAware ADS-B
Mon 06:35:00 PM 51.7481 41.0520 71° East  Level Estimated
Mon 06:36:00 PM 51.7860 41.2351 71° East  Level Estimated
Mon 06:37:00 PM 51.8236 41.4186 72° East  Level Estimated
Mon 06:37:47 PM 52.0360 41.5260 72° East 469 540 37,000  Level FlightAware ADS-B
Mon 06:38:22 PM 52.0790 41.6300 56° Northeast 469 540 37,000  Level FlightAware ADS-B
Mon 06:39:07 PM 52.1330 41.7600 56° Northeast 470 541 37,000  Level FlightAware ADS-B
Mon 06:39:47 PM 52.1790 41.8740 57° Northeast 471 542 37,000  Level FlightAware ADS-B
Mon 06:42:00 PM 52.2588 42.2862 72° East  Level Estimated
Mon 06:42:47 PM 52.3950 42.4110 72° East 471 542 37,000  Level FlightAware ADS-B
Mon 06:43:22 PM 52.4300 42.5240 63° Northeast 468 539 37,000  Level FlightAware ADS-B
Mon 06:44:07 PM 52.4720 42.6680 64° Northeast 469 540 37,000  Level FlightAware ADS-B
Mon 06:44:47 PM 52.5090 42.7940 64° Northeast 470 541 37,000  Level FlightAware ADS-B
Mon 06:45:42 PM 52.5560 42.9620 65° Northeast 468 539 37,000  Level FlightAware ADS-B
Mon 06:46:27 PM 52.6000 43.1200 65° Northeast 466 536 37,000  Level FlightAware ADS-B
Mon 06:47:07 PM 52.6350 43.2440 65° Northeast 465 535 37,000  Level FlightAware ADS-B
Mon 06:47:47 PM 52.6710 43.3760 66° East 464 534 37,000  Level FlightAware ADS-B
Mon 06:48:32 PM 52.7100 43.5200 66° East 465 535 37,000  Level FlightAware ADS-B
Mon 06:49:12 PM 52.7460 43.6500 65° Northeast 465 535 37,000  Level FlightAware ADS-B
Mon 06:49:57 PM 52.7840 43.7920 66° East 467 537 37,000  Level FlightAware ADS-B
Mon 06:50:37 PM 52.8200 43.9250 66° East 467 537 37,000  Level FlightAware ADS-B
Mon 06:51:22 PM 52.8580 44.0680 66° East 467 537 37,000  Level FlightAware ADS-B
Mon 06:52:02 PM 52.8950 44.2020 65° Northeast 469 540 37,000  Level FlightAware ADS-B
Mon 06:52:42 PM 52.9300 44.3330 66° East 469 540 37,000  Level FlightAware ADS-B
Mon 06:53:27 PM 52.9700 44.4800 66° East 470 541 37,000  Level FlightAware ADS-B
Mon 06:54:07 PM 53.0060 44.6120 66° East 470 541 37,000  Level FlightAware ADS-B
Mon 06:54:52 PM 53.0460 44.7620 66° East 468 539 37,000  Level FlightAware ADS-B
Mon 06:55:32 PM 53.0800 44.8910 66° East 466 536 37,000  Level FlightAware ADS-B
Mon 06:56:12 PM 53.1120 45.0230 68° East 464 534 37,000  Level FlightAware ADS-B
Mon 06:56:57 PM 53.1370 45.1790 75° East 465 535 37,000  Level FlightAware ADS-B
Mon 06:57:37 PM 53.1570 45.3160 76° East 466 536 37,000  Level FlightAware ADS-B
Mon 06:58:17 PM 53.1770 45.4590 77° East 468 539 37,000  Level FlightAware ADS-B
Mon 06:59:02 PM 53.1990 45.6130 77° East 470 541 37,000  Level FlightAware ADS-B
Mon 06:59:42 PM 53.2190 45.7550 77° East 470 541 37,000  Level FlightAware ADS-B
Mon 07:00:27 PM 53.2410 45.9130 77° East 470 541 37,000  Level FlightAware ADS-B
Mon 07:01:07 PM 53.2610 46.0560 77° East 470 541 37,000  Level FlightAware ADS-B
Mon 07:01:52 PM 53.2830 46.2130 77° East 469 540 37,000  Level FlightAware ADS-B
Mon 07:02:32 PM 53.3020 46.3560 77° East 469 540 37,000  Level FlightAware ADS-B
Mon 07:03:12 PM 53.3220 46.4950 76° East 469 540 37,000  Level FlightAware ADS-B
Mon 07:03:57 PM 53.3440 46.6560 77° East 468 539 37,000  Level FlightAware ADS-B
Mon 07:04:37 PM 53.3630 46.7970 77° East 467 537 37,000  Level FlightAware ADS-B
Mon 07:05:22 PM 53.3830 46.9510 78° East 466 536 37,000  Level FlightAware ADS-B
Mon 07:06:02 PM 53.4020 47.0950 77° East 465 535 37,000  Level FlightAware ADS-B
Mon 07:06:42 PM 53.4210 47.2350 77° East 464 534 37,000  Level FlightAware ADS-B
Mon 07:07:27 PM 53.4410 47.3930 78° East 463 533 37,000  Level FlightAware ADS-B
Mon 07:08:07 PM 53.4580 47.5290 78° East 462 532 37,000  Level FlightAware ADS-B
Mon 07:08:52 PM 53.4780 47.6910 78° East 463 533 37,000  Level FlightAware ADS-B
Mon 07:09:32 PM 53.4950 47.8300 78° East 462 532 37,000  Level FlightAware ADS-B
Mon 07:10:12 PM 53.5120 47.9670 78° East 461 531 37,000  Level FlightAware ADS-B
Mon 07:10:57 PM 53.5310 48.1260 79° East 463 533 37,000  Level FlightAware ADS-B
Mon 07:11:37 PM 53.5480 48.2660 78° East 464 534 37,000  Level FlightAware ADS-B
Mon 07:12:22 PM 53.5680 48.4270 78° East 464 534 37,000  Level FlightAware ADS-B
Mon 07:13:02 PM 53.5840 48.5650 79° East 463 533 37,000  Level FlightAware ADS-B
Mon 07:13:42 PM 53.6010 48.7050 78° East 463 533 37,000  Level FlightAware ADS-B
Mon 07:14:27 PM 53.6200 48.8700 79° East 463 533 37,000  Level FlightAware ADS-B
Mon 07:15:07 PM 53.6360 49.0120 79° East 464 534 37,000  Level FlightAware ADS-B
Mon 07:15:52 PM 53.6540 49.1720 79° East 465 535 37,000  Level FlightAware ADS-B
Mon 07:16:32 PM 53.6700 49.3130 79° East 465 535 37,000  Level FlightAware ADS-B
Mon 07:17:12 PM 53.6860 49.4550 79° East 466 536 37,000  Level FlightAware ADS-B
Mon 07:17:57 PM 53.7060 49.6120 78° East 468 539 37,000  Level FlightAware ADS-B
Mon 07:18:37 PM 53.7250 49.7540 77° East 468 539 37,000  Level FlightAware ADS-B
Mon 07:19:17 PM 53.7440 49.8980 77° East 468 539 37,000  Level FlightAware ADS-B
Mon 07:20:02 PM 53.7640 50.0590 78° East 469 540 37,000  Level FlightAware ADS-B
Mon 07:20:42 PM 53.7820 50.2020 78° East 470 541 37,000  Level FlightAware ADS-B
Mon 07:21:27 PM 53.8020 50.3590 78° East 469 540 37,000  Level FlightAware ADS-B
Mon 07:22:07 PM 53.8200 50.5060 78° East 467 537 37,000  Level FlightAware ADS-B
Mon 07:22:52 PM 53.8390 50.6640 78° East 465 535 37,000  Level FlightAware ADS-B
Mon 07:23:32 PM 53.8560 50.8110 79° East 464 534 37,000  Level FlightAware ADS-B
Mon 07:24:12 PM 53.8730 50.9530 78° East 464 534 37,000  Level FlightAware ADS-B
Mon 07:24:57 PM 53.8910 51.1070 79° East 464 534 37,000  Level FlightAware ADS-B
Mon 07:25:37 PM 53.9020 51.2490 82° East 462 532 37,000  Level FlightAware ADS-B
Mon 07:26:32 PM 53.9080 51.4350 87° East 464 534 37,000  Level FlightAware ADS-B
Mon 07:27:12 PM 53.9130 51.5840 87° East 464 534 37,000  Level FlightAware ADS-B
Mon 07:27:57 PM 53.9180 51.7570 87° East 464 534 37,000  Level FlightAware ADS-B
Mon 07:28:42 PM 53.9220 51.9210 88° East 464 534 37,000  Level FlightAware ADS-B
Mon 07:29:22 PM 53.9260 52.0640 87° East 464 534 37,000  Level FlightAware ADS-B
Mon 07:30:02 PM 53.9300 52.2080 87° East 463 533 37,000  Level FlightAware ADS-B
Mon 07:30:47 PM 53.9340 52.3720 88° East 464 534 37,000  Level FlightAware ADS-B
Mon 07:31:27 PM 53.9370 52.5130 88° East 465 535 37,000  Level FlightAware ADS-B
Mon 07:32:12 PM 53.9400 52.6770 88° East 465 535 37,000  Level FlightAware ADS-B
Mon 07:33:07 PM 53.9440 52.8780 88° East 464 534 37,000  Level FlightAware ADS-B
Mon 07:33:47 PM 53.9470 53.0260 88° East 464 534 37,000  Level FlightAware ADS-B
Mon 07:34:32 PM 53.9500 53.1870 88° East 464 534 37,000  Level FlightAware ADS-B
Mon 07:35:12 PM 53.9520 53.3270 89° East 465 535 37,000  Level FlightAware ADS-B
Mon 07:35:52 PM 53.9540 53.4800 89° East 465 535 37,000  Level FlightAware ADS-B
Mon 07:36:52 PM 53.9570 53.7000 89° East 466 536 37,000  Level FlightAware ADS-B
Mon 07:37:27 PM 53.9600 53.8150 87° East 466 536 37,000  Level FlightAware ADS-B
Mon 07:38:12 PM 53.9570 53.7000 268° West 465 535 37,000  Level FlightAware ADS-B
Mon 07:38:57 PM 53.9600 53.8460 88° East 465 535 37,000  Level FlightAware ADS-B
Mon 07:39:32 PM 53.9570 53.7000 268° West 466 536 37,000  Level FlightAware ADS-B
Mon 07:40:17 PM 53.9590 53.8460 89° East 466 536 37,000  Level FlightAware ADS-B
Mon 07:40:57 PM 53.9600 53.9700 89° East 466 536 37,000  Level FlightAware ADS-B
Mon 07:41:37 PM 53.9610 54.0950 89° East 466 536 37,000  Level FlightAware ADS-B
Mon 07:42:27 PM 53.9630 54.2510 89° East 466 536 37,000  Level FlightAware ADS-B
Mon 07:43:07 PM 53.9640 54.3750 89° East 466 536 37,000  Level FlightAware ADS-B
Mon 07:43:47 PM 53.9650 54.5000 89° East 466 536 37,000  Level FlightAware ADS-B
Mon 07:44:27 PM 53.9670 54.6250 88° East 466 536 37,000  Level FlightAware ADS-B
Mon 07:45:07 PM 53.9680 54.7490 89° East 466 536 37,000  Level FlightAware ADS-B
Mon 07:45:47 PM 53.9690 54.8740 89° East 466 536 37,000  Level FlightAware ADS-B
Mon 07:46:37 PM 53.9710 55.0290 89° East 466 536 37,000  Level FlightAware ADS-B
Mon 07:47:17 PM 53.9720 55.1540 89° East 466 536 37,000  Level FlightAware ADS-B
Mon 07:47:57 PM 53.9730 55.2790 89° East 466 536 37,000  Level FlightAware ADS-B
Mon 07:48:37 PM 53.9750 55.4030 88° East 466 536 37,000  Level FlightAware ADS-B
Mon 07:49:17 PM 53.9760 55.5280 89° East 466 536 37,000  Level FlightAware ADS-B
Mon 07:51:52 PM 54.6790 56.5960 83° East 479 551 37,000  Level FlightAware ADS-B
Mon 07:52:00 PM 54.0129 56.0766 83° East  Level Estimated
Mon 07:52:37 PM 54.7150 56.7840 72° East 480 552 37,000  Level FlightAware ADS-B
Mon 07:53:37 PM 54.7560 57.0010 72° East 479 551 37,000  Level FlightAware ADS-B
Mon 07:54:17 PM 54.7850 57.1580 72° East 479 551 37,000  Level FlightAware ADS-B
Mon 07:55:02 PM 54.8130 57.3060 72° East 479 551 37,000  Level FlightAware ADS-B
Mon 07:55:57 PM 54.8500 57.5100 72° East 480 552 37,000  Level FlightAware ADS-B
Mon 07:56:52 PM 54.8880 57.7180 72° East 482 555 37,000  Level FlightAware ADS-B
Mon 07:57:32 PM 54.9160 57.8690 72° East 483 556 37,000  Level FlightAware ADS-B
Mon 07:58:12 PM 54.9430 58.0210 73° East 483 556 37,000  Level FlightAware ADS-B
Mon 07:59:12 PM 54.9810 58.2360 73° East 483 556 37,000  Level FlightAware ADS-B
Mon 07:59:47 PM 55.0050 58.3750 73° East 485 558 37,000  Level FlightAware ADS-B
Mon 08:00:37 PM 55.0350 58.5560 74° East 486 559 37,000  Level FlightAware ADS-B
Mon 08:01:17 PM 55.0610 58.7160 74° East 487 560 37,000  Level FlightAware ADS-B
Mon 08:02:02 PM 55.0880 58.8830 74° East 488 562 37,000  Level FlightAware ADS-B
Mon 08:02:42 PM 55.1120 59.0310 74° East 488 562 37,000  Level FlightAware ADS-B
Mon 08:03:27 PM 55.1400 59.2100 75° East 490 564 37,000  Level FlightAware ADS-B
Mon 08:04:07 PM 55.1670 59.3780 74° East 490 564 37,000  Level FlightAware ADS-B
Mon 08:04:47 PM 55.1900 59.5230 74° East 491 565 37,000  Level FlightAware ADS-B
Mon 08:05:32 PM 55.2150 59.6940 76° East 489 563 37,000  Level FlightAware ADS-B
Mon 08:06:12 PM 55.2290 59.8500 81° East 488 562 37,000  Level FlightAware ADS-B
Mon 08:07:07 PM 55.2460 60.0640 82° East 486 559 37,000  Level FlightAware ADS-B
Mon 08:07:52 PM 55.2600 60.2440 82° East 484 557 37,000  Level FlightAware ADS-B
Mon 08:08:32 PM 55.2710 60.3890 82° East 483 556 37,000  Level FlightAware ADS-B
Mon 08:09:17 PM 55.2840 60.5650 83° East 482 555 37,000  Level FlightAware ADS-B
Mon 08:09:52 PM 55.2950 60.6970 82° East 482 555 37,000  Level FlightAware ADS-B
Mon 08:10:32 PM 55.3050 60.8290 82° East 482 555 37,000  Level FlightAware ADS-B
Mon 08:11:17 PM 55.3190 61.0230 83° East 484 557 37,000  Level FlightAware ADS-B
Mon 08:11:57 PM 55.3330 61.1750 81° East 485 558 37,000  Level FlightAware ADS-B
Mon 08:12:42 PM 55.3470 61.3410 81° East 485 558 37,000  Level FlightAware ADS-B
Mon 08:13:22 PM 55.3590 61.4730 81° East 485 558 37,000  Level FlightAware ADS-B
Mon 08:14:02 PM 55.3700 61.6060 82° East 485 558 37,000  Level FlightAware ADS-B
Mon 08:14:52 PM 55.3850 61.7720 81° East 485 558 37,000  Level FlightAware ADS-B
Mon 08:15:32 PM 55.3980 62.0220 85° East 487 560 37,000  Level FlightAware ADS-B
Mon 08:16:27 PM 55.4130 62.2160 82° East 487 560 37,000  Level FlightAware ADS-B
Mon 08:17:27 PM 55.4320 62.5060 83° East 488 562 37,000  Level FlightAware ADS-B
Mon 08:18:37 PM 55.4490 62.7530 83° East 489 563 37,000  Level FlightAware ADS-B
Mon 08:19:12 PM 55.4590 62.8950 83° East 490 564 37,000  Level FlightAware ADS-B
Mon 08:19:52 PM 55.4670 63.0480 85° East 489 563 37,000  Level FlightAware ADS-B
Mon 08:20:42 PM 55.4690 63.2350 89° East 490 564 37,000  Level FlightAware ADS-B
Mon 08:21:22 PM 55.4710 63.3940 89° East 490 564 37,000  Level FlightAware ADS-B
Mon 08:22:07 PM 55.4720 63.5780 89° East 490 564 37,000  Level FlightAware ADS-B
Mon 08:22:47 PM 55.4730 63.7360 89° East 489 563 37,000  Level FlightAware ADS-B
Mon 08:23:27 PM 55.4740 63.9050 89° East 487 560 37,000  Level FlightAware ADS-B
Mon 08:24:07 PM 55.4740 64.0600 90° East 486 559 37,000  Level FlightAware ADS-B
Mon 08:24:57 PM 55.4750 64.2570 89° East 485 558 37,000  Level FlightAware ADS-B
Mon 08:25:27 PM 55.4750 64.3740 90° East 485 558 37,000  Level FlightAware ADS-B
Mon 08:26:37 PM 55.4760 64.6430 90° East 486 559 37,000  Level FlightAware ADS-B
Mon 08:27:17 PM 55.4760 64.8120 90° East 486 559 37,000  Level FlightAware ADS-B
Mon 08:28:12 PM 55.4760 65.0270 90° East 488 562 37,000  Level FlightAware ADS-B
Mon 08:28:57 PM 55.4760 65.2100 90° East 491 565 37,000  Level FlightAware ADS-B
Mon 08:29:32 PM 55.4750 65.3500 91° East 493 567 37,000  Level FlightAware ADS-B
Mon 08:30:17 PM 55.4770 65.5190 89° East 494 568 37,000  Level FlightAware ADS-B
Mon 08:30:57 PM 55.4850 65.6690 85° East 495 570 37,000  Level FlightAware ADS-B
Mon 08:31:42 PM 55.4920 65.8430 86° East 494 568 37,000  Level FlightAware ADS-B
Mon 08:32:17 PM 55.4970 65.9890 86° East 493 567 37,000  Level FlightAware ADS-B
Mon 08:33:02 PM 55.5040 66.1570 86° East 493 567 37,000  Level FlightAware ADS-B
Mon 08:33:42 PM 55.5090 66.2930 86° East 493 567 37,000  Level FlightAware ADS-B
Mon 08:34:32 PM 55.5160 66.4640 86° East 493 567 37,000  Level FlightAware ADS-B
Mon 08:35:12 PM 55.5220 66.6010 86° East 493 567 37,000  Level FlightAware ADS-B
Mon 08:35:52 PM 55.5270 66.7370 86° East 493 567 37,000  Level FlightAware ADS-B
Mon 08:36:32 PM 55.5320 66.8740 86° East 493 567 37,000  Level FlightAware ADS-B
Mon 08:37:12 PM 55.5380 67.0110 86° East 493 567 37,000  Level FlightAware ADS-B
Mon 08:38:02 PM 55.5440 67.1820 86° East 493 567 37,000  Level FlightAware ADS-B
Mon 08:40:00 PM 55.5246 67.5958 95° East  Level Estimated
Mon 08:41:00 PM 55.5143 67.8061 95° East  Level Estimated
Mon 08:42:00 PM 55.5035 68.0162 95° East  Level Estimated
Mon 08:43:00 PM 55.4924 68.2262 95° East  Level Estimated
Mon 08:44:00 PM 55.4810 68.4362 95° East  Level Estimated
Mon 08:45:00 PM 55.4692 68.6459 96° East  Level Estimated
Mon 08:46:00 PM 55.4570 68.8556 96° East  Level Estimated
Mon 08:47:00 PM 55.4445 69.0651 96° East  Level Estimated
Mon 08:48:00 PM 55.4316 69.2745 96° East  Level Estimated
Mon 08:49:00 PM 55.4183 69.4838 96° East  Level Estimated
Mon 08:50:00 PM 55.4047 69.6929 96° East  Level Estimated
Mon 08:51:00 PM 55.3908 69.9018 97° East  Level Estimated
Mon 08:52:00 PM 55.3764 70.1106 97° East  Level Estimated
Mon 08:53:00 PM 55.3618 70.3193 97° East  Level Estimated
Mon 08:54:00 PM 55.3467 70.5278 97° East  Level Estimated
Mon 08:55:00 PM 55.3313 70.7361 97° East  Level Estimated
Mon 08:56:00 PM 55.3156 70.9443 97° East  Level Estimated
Mon 08:57:00 PM 55.2995 71.1523 98° East  Level Estimated
Mon 08:58:00 PM 55.2831 71.3602 98° East  Level Estimated
Mon 08:59:00 PM 55.2663 71.5678 98° East  Level Estimated
Mon 09:00:00 PM 55.2491 71.7753 98° East  Level Estimated
Mon 09:01:00 PM 55.2317 71.9826 98° East  Level Estimated
Mon 09:02:00 PM 55.2138 72.1898 99° East  Level Estimated
Mon 09:03:00 PM 55.1956 72.3967 99° East  Level Estimated
Mon 09:04:00 PM 55.1771 72.6035 99° East  Level Estimated
Mon 09:05:00 PM 55.1581 72.8100 99° East  Level Estimated
Mon 09:06:00 PM 55.1389 73.0164 99° East  Level Estimated
Mon 09:07:00 PM 55.1193 73.2225 99° East  Level Estimated
Mon 09:08:00 PM 55.0994 73.4285 100° East  Level Estimated
Mon 09:09:00 PM 55.0791 73.6342 100° East  Level Estimated
Mon 09:10:00 PM 55.0584 73.8398 100° East  Level Estimated
Mon 09:11:00 PM 55.0374 74.0451 100° East  Level Estimated
Mon 09:12:00 PM 55.0161 74.2502 100° East  Level Estimated
Mon 09:13:00 PM 54.9944 74.4551 100° East  Level Estimated
Mon 09:14:00 PM 54.9724 74.6597 101° East  Level Estimated
Mon 09:15:00 PM 54.9501 74.8642 101° East  Level Estimated
Mon 09:16:00 PM 54.9274 75.0684 101° East  Level Estimated
Mon 09:17:00 PM 54.9043 75.2723 101° East  Level Estimated
Mon 09:18:00 PM 54.8809 75.4761 101° East  Level Estimated
Mon 09:19:00 PM 54.8572 75.6796 101° East  Level Estimated
Mon 09:20:00 PM 54.8331 75.8828 102° East  Level Estimated
Mon 09:21:00 PM 54.8087 76.0859 102° East  Level Estimated
Mon 09:22:00 PM 54.7840 76.2886 102° East  Level Estimated
Mon 09:23:00 PM 54.7589 76.4911 102° East  Level Estimated
Mon 09:24:00 PM 54.7335 76.6934 102° East  Level Estimated
Mon 09:25:00 PM 54.7077 76.8954 102° East  Level Estimated
Mon 09:26:00 PM 54.6817 77.0972 103° East  Level Estimated
Mon 09:27:00 PM 54.6552 77.2987 103° East  Level Estimated
Mon 09:28:00 PM 54.6285 77.4999 103° East  Level Estimated
Mon 09:29:00 PM 54.6014 77.7009 103° East  Level Estimated
Mon 09:30:00 PM 54.5740 77.9016 103° East  Level Estimated
Mon 09:31:00 PM 54.5462 78.1020 103° East  Level Estimated
Mon 09:32:00 PM 54.5181 78.3021 104° East  Level Estimated
Mon 09:32:22 PM 54.7320 79.8220 104° East 489 563 37,000  Level FlightAware ADS-B
Mon 09:33:00 PM 54.4897 78.5020 104° East  Level Estimated
Mon 09:33:02 PM 54.7150 79.9870 100° East 491 565 37,000  Level FlightAware ADS-B
Mon 09:33:47 PM 54.6980 80.1640 99° East 491 565 37,000  Level FlightAware ADS-B
Mon 09:34:27 PM 54.6810 80.3220 100° East 491 565 37,000  Level FlightAware ADS-B
Mon 09:35:12 PM 54.6650 80.4840 100° East 492 566 37,000  Level FlightAware ADS-B
Mon 09:35:47 PM 54.6500 80.6290 100° East 494 568 37,000  Level FlightAware ADS-B
Mon 09:36:37 PM 54.6300 80.8180 100° East 494 568 37,000  Level FlightAware ADS-B
Mon 09:37:17 PM 54.6120 80.9810 101° East 494 568 37,000  Level FlightAware ADS-B
Mon 09:37:57 PM 54.5950 81.1300 101° East 494 568 37,000  Level FlightAware ADS-B
Mon 09:38:42 PM 54.5760 81.3090 100° East 494 568 37,000  Level FlightAware ADS-B
Mon 09:39:22 PM 54.5590 81.4590 101° East 496 571 37,000  Level FlightAware ADS-B
Mon 09:40:02 PM 54.5410 81.6180 101° East 495 570 37,000  Level FlightAware ADS-B
Mon 09:40:47 PM 54.5220 81.7840 101° East 494 568 37,000  Level FlightAware ADS-B
Mon 09:41:27 PM 54.5040 81.9350 102° East 495 570 37,000  Level FlightAware ADS-B
Mon 09:42:12 PM 54.4820 82.1200 101° East 497 572 37,000  Level FlightAware ADS-B
Mon 09:42:52 PM 54.4640 82.2730 101° East 498 573 37,000  Level FlightAware ADS-B
Mon 09:43:32 PM 54.4490 82.4110 101° East 498 573 37,000  Level FlightAware ADS-B
Mon 09:44:17 PM 54.4270 82.5990 101° East 497 572 37,000  Level FlightAware ADS-B
Mon 09:44:57 PM 54.4090 82.7560 101° East 497 572 37,000  Level FlightAware ADS-B
Mon 09:45:42 PM 54.3880 82.9290 102° East 498 573 37,000  Level FlightAware ADS-B
Mon 09:46:22 PM 54.3690 83.0790 102° East 499 574 37,000  Level FlightAware ADS-B
Mon 09:47:02 PM 54.3510 83.2260 102° East 499 574 37,000  Level FlightAware ADS-B
Mon 09:47:47 PM 54.3290 83.3990 102° East 501 577 37,000  Level FlightAware ADS-B
Mon 09:48:22 PM 54.3100 83.5450 103° East 501 577 37,000  Level FlightAware ADS-B
Mon 09:49:12 PM 54.2860 83.7330 102° East 501 577 37,000  Level FlightAware ADS-B
Mon 09:49:52 PM 54.2660 83.8810 103° East 500 575 37,000  Level FlightAware ADS-B
Mon 09:50:32 PM 54.2460 84.0320 103° East 501 577 37,000  Level FlightAware ADS-B
Mon 09:51:17 PM 54.2220 84.2120 103° East 503 579 37,000  Level FlightAware ADS-B
Mon 09:51:57 PM 54.2000 84.3740 103° East 504 580 37,000  Level FlightAware ADS-B
Mon 09:52:37 PM 54.1790 84.5250 103° East 504 580 37,000  Level FlightAware ADS-B
Mon 09:53:22 PM 54.1550 84.6970 103° East 505 581 37,000  Level FlightAware ADS-B
Mon 09:54:02 PM 54.1320 84.8580 104° East 506 582 37,000  Level FlightAware ADS-B
Mon 09:54:47 PM 54.1090 85.0260 103° East 506 582 37,000  Level FlightAware ADS-B
Mon 09:55:27 PM 54.0850 85.1860 104° East 507 583 37,000  Level FlightAware ADS-B
Mon 09:56:12 PM 54.0570 85.3600 105° East 507 583 37,000  Level FlightAware ADS-B
Mon 09:56:52 PM 54.0350 85.5040 105° East 511 588 37,000  Level FlightAware ADS-B
Mon 09:57:32 PM 54.0110 85.6580 105° East 511 588 37,000  Level FlightAware ADS-B
Mon 09:58:17 PM 53.9820 85.8370 105° East 509 586 37,000  Level FlightAware ADS-B
Mon 09:58:57 PM 53.9590 85.9840 105° East 509 586 37,000  Level FlightAware ADS-B
Mon 09:59:37 PM 53.9330 86.1440 105° East 510 587 37,000  Level FlightAware ADS-B
Mon 10:00:22 PM 53.9050 86.3140 106° East 512 589 37,000  Level FlightAware ADS-B
Mon 10:01:12 PM 53.8710 86.5150 106° East 513 590 37,000  Level FlightAware ADS-B
Mon 10:02:02 PM 53.8400 86.7040 105° East 512 589 37,000  Level FlightAware ADS-B
Mon 10:02:47 PM 53.8110 86.8670 107° East 513 590 37,000  Level FlightAware ADS-B
Mon 10:03:37 PM 53.7610 87.0640 113° Southeast 515 593 37,000  Level FlightAware ADS-B
Mon 10:04:22 PM 53.7210 87.2210 113° Southeast 515 593 37,000  Level FlightAware ADS-B
Mon 10:04:57 PM 53.6890 87.3430 114° Southeast 515 593 37,000  Level FlightAware ADS-B
Mon 10:05:42 PM 53.6420 87.5200 114° Southeast 515 593 37,000  Level FlightAware ADS-B
Mon 10:06:27 PM 53.5980 87.6850 114° Southeast 515 593 37,000  Level FlightAware ADS-B
Mon 10:07:02 PM 53.5690 87.7970 114° Southeast 515 593 37,000  Level FlightAware ADS-B
Mon 10:07:52 PM 53.5150 87.9950 115° Southeast 515 593 37,000  Level FlightAware ADS-B
Mon 10:08:32 PM 53.4760 88.1390 114° Southeast 516 594 37,000  Level FlightAware ADS-B
Mon 10:09:12 PM 53.4350 88.2860 115° Southeast 517 595 37,000  Level FlightAware ADS-B
Mon 10:09:57 PM 53.3900 88.4490 115° Southeast 516 594 37,000  Level FlightAware ADS-B
Mon 10:10:27 PM 53.3630 88.5470 115° Southeast 516 594 37,000  Level FlightAware ADS-B
Mon 10:11:22 PM 53.3050 88.7560 115° Southeast 516 594 37,000  Level FlightAware ADS-B
Mon 10:11:57 PM 53.2690 88.8830 115° Southeast 517 595 37,000  Level FlightAware ADS-B
Mon 10:12:37 PM 53.2280 89.0270 115° Southeast 518 596 37,000  Level FlightAware ADS-B
Mon 10:13:27 PM 53.1800 89.1990 115° Southeast 519 597 37,000  Level FlightAware ADS-B
Mon 10:14:07 PM 53.1420 89.3340 115° Southeast 519 597 37,000  Level FlightAware ADS-B
Mon 10:14:47 PM 53.1070 89.4580 115° Southeast 519 597 37,000  Level FlightAware ADS-B
Mon 10:15:27 PM 53.0730 89.5810 115° Southeast 519 597 37,000  Level FlightAware ADS-B
Mon 10:16:07 PM 53.0380 89.7040 115° Southeast 519 597 37,000  Level FlightAware ADS-B
Mon 10:16:57 PM 52.9950 89.8580 115° Southeast 519 597 37,000  Level FlightAware ADS-B
Mon 10:17:37 PM 52.9600 89.9800 115° Southeast 519 597 37,000  Level FlightAware ADS-B
Mon 10:18:17 PM 52.9260 90.1030 115° Southeast 519 597 37,000  Level FlightAware ADS-B
Mon 10:18:57 PM 52.8910 90.2260 115° Southeast 519 597 37,000  Level FlightAware ADS-B
Mon 10:19:37 PM 52.8570 90.3480 115° Southeast 519 597 37,000  Level FlightAware ADS-B
Mon 10:20:27 PM 52.8140 90.5020 115° Southeast 519 597 37,000  Level FlightAware ADS-B
Mon 10:21:07 PM 52.7790 90.6240 115° Southeast 519 597 37,000  Level FlightAware ADS-B
Mon 10:21:47 PM 52.7450 90.7460 115° Southeast 519 597 37,000  Level FlightAware ADS-B
Mon 10:22:27 PM 52.7100 90.8680 115° Southeast 519 597 37,000  Level FlightAware ADS-B
Mon 10:23:07 PM 52.6760 90.9900 115° Southeast 519 597 37,000  Level FlightAware ADS-B
Mon 10:25:00 PM 52.5783 91.3240 116° Southeast  Level Estimated
Mon 10:26:00 PM 52.5260 91.5007 116° Southeast  Level Estimated
Mon 10:27:00 PM 52.4735 91.6770 116° Southeast  Level Estimated
Mon 10:28:00 PM 52.4207 91.8529 116° Southeast  Level Estimated
Mon 10:29:00 PM 52.3677 92.0283 116° Southeast  Level Estimated
Mon 10:30:00 PM 52.3144 92.2033 116° Southeast  Level Estimated
Mon 10:31:00 PM 52.2608 92.3779 117° Southeast  Level Estimated
Mon 10:32:00 PM 52.2070 92.5521 117° Southeast  Level Estimated
Mon 10:33:00 PM 52.1530 92.7259 117° Southeast  Level Estimated
Mon 10:34:00 PM 52.0986 92.8992 117° Southeast  Level Estimated
Mon 10:35:00 PM 52.0440 93.0722 117° Southeast  Level Estimated
Mon 10:36:00 PM 51.9892 93.2447 117° Southeast  Level Estimated
Mon 10:37:00 PM 51.9341 93.4167 117° Southeast  Level Estimated
Mon 10:38:00 PM 51.8788 93.5884 118° Southeast  Level Estimated
Mon 10:39:00 PM 51.8232 93.7596 118° Southeast  Level Estimated
Mon 10:40:00 PM 51.7674 93.9304 118° Southeast  Level Estimated
Mon 10:41:00 PM 51.7113 94.1008 118° Southeast  Level Estimated
Mon 10:42:00 PM 51.6550 94.2707 118° Southeast  Level Estimated
Mon 10:43:00 PM 51.5984 94.4403 118° Southeast  Level Estimated
Mon 10:44:00 PM 51.5416 94.6094 118° Southeast  Level Estimated
Mon 10:45:00 PM 51.4846 94.7781 118° Southeast  Level Estimated
Mon 10:46:00 PM 51.4273 94.9464 119° Southeast  Level Estimated
Mon 10:47:00 PM 51.3697 95.1142 119° Southeast  Level Estimated
Mon 10:48:00 PM 51.3120 95.2816 119° Southeast  Level Estimated
Mon 10:49:00 PM 51.2539 95.4486 119° Southeast  Level Estimated
Mon 10:50:00 PM 51.1957 95.6152 119° Southeast  Level Estimated
Mon 10:51:00 PM 51.1372 95.7814 119° Southeast  Level Estimated
Mon 10:52:00 PM 51.0785 95.9471 119° Southeast  Level Estimated
Mon 10:53:00 PM 51.0195 96.1124 120° Southeast  Level Estimated
Mon 10:54:00 PM 50.9603 96.2773 120° Southeast  Level Estimated
Mon 10:55:00 PM 50.9009 96.4418 120° Southeast  Level Estimated
Mon 10:56:00 PM 50.8413 96.6058 120° Southeast  Level Estimated
Mon 10:57:00 PM 50.7814 96.7695 120° Southeast  Level Estimated
Mon 10:58:00 PM 50.7213 96.9327 120° Southeast  Level Estimated
Mon 10:59:00 PM 50.6609 97.0955 120° Southeast  Level Estimated
Mon 11:00:00 PM 50.6004 97.2579 120° Southeast  Level Estimated
Mon 11:01:00 PM 50.5396 97.4198 121° Southeast  Level Estimated
Mon 11:02:00 PM 50.4786 97.5814 121° Southeast  Level Estimated
Mon 11:03:00 PM 50.4174 97.7425 121° Southeast  Level Estimated
Mon 11:04:00 PM 50.3559 97.9032 121° Southeast  Level Estimated
Mon 11:05:00 PM 50.2942 98.0635 121° Southeast  Level Estimated
Mon 11:06:00 PM 50.2323 98.2234 121° Southeast  Level Estimated
Mon 11:07:00 PM 50.1702 98.3828 121° Southeast  Level Estimated
Mon 11:08:00 PM 50.1079 98.5419 121° Southeast  Level Estimated
Mon 11:09:00 PM 50.0453 98.7005 122° Southeast  Level Estimated
Mon 11:10:00 PM 49.9826 98.8587 122° Southeast  Level Estimated
Mon 11:11:00 PM 49.9196 99.0165 122° Southeast  Level Estimated
Mon 11:12:00 PM 49.8564 99.1739 122° Southeast  Level Estimated
Mon 11:13:00 PM 49.7930 99.3309 122° Southeast  Level Estimated
Mon 11:14:00 PM 49.7294 99.4875 122° Southeast  Level Estimated
Mon 11:15:00 PM 49.6656 99.6436 122° Southeast  Level Estimated
Mon 11:16:00 PM 49.6015 99.7994 122° Southeast  Level Estimated
Mon 11:17:00 PM 49.5373 99.9547 122° Southeast  Level Estimated
Mon 11:18:00 PM 49.4728 100.1096 123° Southeast  Level Estimated
Mon 11:19:00 PM 49.4082 100.2642 123° Southeast  Level Estimated
Mon 11:20:00 PM 49.3433 100.4183 123° Southeast  Level Estimated
Mon 11:21:00 PM 49.2782 100.5720 123° Southeast  Level Estimated
Mon 11:22:00 PM 49.2130 100.7253 123° Southeast  Level Estimated
Mon 11:23:00 PM 49.1475 100.8782 123° Southeast  Level Estimated
Mon 11:24:00 PM 49.0818 101.0307 123° Southeast  Level Estimated
Mon 11:25:00 PM 49.0159 101.1828 123° Southeast  Level Estimated
Mon 11:26:00 PM 48.9499 101.3345 124° Southeast  Level Estimated
Mon 11:27:00 PM 48.8836 101.4858 124° Southeast  Level Estimated
Mon 11:28:00 PM 48.8171 101.6367 124° Southeast  Level Estimated
Mon 11:29:00 PM 48.7505 101.7871 124° Southeast  Level Estimated
Mon 11:30:00 PM 48.6836 101.9372 124° Southeast  Level Estimated
Mon 11:31:00 PM 48.6165 102.0869 124° Southeast  Level Estimated
Mon 11:32:00 PM 48.5493 102.2362 124° Southeast  Level Estimated
Mon 11:33:00 PM 48.4818 102.3851 124° Southeast  Level Estimated
Mon 11:34:00 PM 48.4142 102.5336 124° Southeast  Level Estimated
Mon 11:35:00 PM 48.3464 102.6817 125° Southeast  Level Estimated
Mon 11:36:00 PM 48.2784 102.8294 125° Southeast  Level Estimated
Mon 11:37:00 PM 48.2102 102.9767 125° Southeast  Level Estimated
Mon 11:38:00 PM 48.1418 103.1236 125° Southeast  Level Estimated
Mon 11:39:00 PM 48.0732 103.2702 125° Southeast  Level Estimated
Mon 11:40:00 PM 48.0045 103.4163 125° Southeast  Level Estimated
Mon 11:41:00 PM 47.9355 103.5621 125° Southeast  Level Estimated
Mon 11:42:00 PM 47.8664 103.7074 125° Southeast  Level Estimated
Mon 11:43:00 PM 47.7971 103.8524 125° Southeast  Level Estimated
Mon 11:44:00 PM 47.7276 103.9970 126° Southeast  Level Estimated
Mon 11:45:00 PM 47.6579 104.1412 126° Southeast  Level Estimated
Mon 11:46:00 PM 47.5880 104.2850 126° Southeast  Level Estimated
Mon 11:47:00 PM 47.5180 104.4284 126° Southeast  Level Estimated
Mon 11:48:00 PM 47.4478 104.5715 126° Southeast  Level Estimated
Mon 11:49:00 PM 47.3774 104.7141 126° Southeast  Level Estimated
Mon 11:50:00 PM 47.3068 104.8564 126° Southeast  Level Estimated
Mon 11:51:00 PM 47.2360 104.9984 126° Southeast  Level Estimated
Mon 11:52:00 PM 47.1651 105.1399 126° Southeast  Level Estimated
Mon 11:53:00 PM 47.0940 105.2810 126° Southeast  Level Estimated
Mon 11:54:00 PM 47.0228 105.4218 127° Southeast  Level Estimated
Mon 11:55:00 PM 46.9513 105.5622 127° Southeast  Level Estimated
Mon 11:56:00 PM 46.8797 105.7022 127° Southeast  Level Estimated
Mon 11:57:00 PM 46.8079 105.8419 127° Southeast  Level Estimated
Mon 11:58:00 PM 46.7360 105.9811 127° Southeast  Level Estimated
Mon 11:59:00 PM 46.6639 106.1201 127° Southeast  Level Estimated
Tue 12:00:00 AM 46.5916 106.2586 127° Southeast  Level Estimated
Tue 12:01:00 AM 46.5191 106.3968 127° Southeast  Level Estimated
Tue 12:02:00 AM 46.4465 106.5346 127° Southeast  Level Estimated
Tue 12:03:00 AM 46.3737 106.6720 127° Southeast  Level Estimated
Tue 12:04:00 AM 46.3008 106.8091 128° Southeast  Level Estimated
Tue 12:05:00 AM 46.2277 106.9457 128° Southeast  Level Estimated
Tue 12:06:00 AM 46.1544 107.0821 128° Southeast  Level Estimated
Tue 12:07:00 AM 46.0810 107.2180 128° Southeast  Level Estimated
Tue 12:08:00 AM 46.0074 107.3537 128° Southeast  Level Estimated
Tue 12:09:00 AM 45.9336 107.4889 128° Southeast  Level Estimated
Tue 12:10:00 AM 45.8597 107.6238 128° Southeast  Level Estimated
Tue 12:11:00 AM 45.7856 107.7583 128° Southeast  Level Estimated
Tue 12:12:00 AM 45.7114 107.8925 128° Southeast  Level Estimated
Tue 12:13:00 AM 45.6370 108.0263 128° Southeast  Level Estimated
Tue 12:14:00 AM 45.5625 108.1598 129° Southeast  Level Estimated
Tue 12:15:00 AM 45.4878 108.2929 129° Southeast  Level Estimated
Tue 12:16:00 AM 45.4129 108.4256 129° Southeast  Level Estimated
Tue 12:17:00 AM 45.3379 108.5580 129° Southeast  Level Estimated
Tue 12:18:00 AM 45.2627 108.6901 129° Southeast  Level Estimated
Tue 12:19:00 AM 45.1874 108.8218 129° Southeast  Level Estimated
Tue 12:20:00 AM 45.1120 108.9531 129° Southeast  Level Estimated
Tue 12:21:00 AM 45.0364 109.0842 129° Southeast  Level Estimated
Tue 12:22:00 AM 44.9606 109.2148 129° Southeast  Level Estimated
Tue 12:23:00 AM 44.8847 109.3451 129° Southeast  Level Estimated
Tue 12:24:00 AM 44.8086 109.4751 129° Southeast  Level Estimated
Tue 12:25:00 AM 44.7324 109.6047 130° Southeast  Level Estimated
Tue 12:26:00 AM 44.6561 109.7340 130° Southeast  Level Estimated
Tue 12:27:00 AM 44.5796 109.8630 130° Southeast  Level Estimated
Tue 12:28:00 AM 44.5029 109.9916 130° Southeast  Level Estimated
Tue 12:29:00 AM 44.4261 110.1199 130° Southeast  Level Estimated
Tue 12:30:00 AM 44.3492 110.2478 130° Southeast  Level Estimated
Tue 12:31:00 AM 44.2721 110.3754 130° Southeast  Level Estimated
Tue 12:32:00 AM 44.1949 110.5026 130° Southeast  Level Estimated
Tue 12:33:00 AM 44.1176 110.6296 130° Southeast  Level Estimated
Tue 12:34:00 AM 44.0401 110.7562 130° Southeast  Level Estimated
Tue 12:35:00 AM 43.9625 110.8824 130° Southeast  Level Estimated
Tue 12:36:00 AM 43.8847 111.0084 131° Southeast  Level Estimated
Tue 12:37:00 AM 43.8068 111.1340 131° Southeast  Level Estimated
Tue 12:38:00 AM 43.7287 111.2593 131° Southeast  Level Estimated
Tue 12:39:00 AM 43.6506 111.3842 131° Southeast  Level Estimated
Tue 12:40:00 AM 43.5722 111.5089 131° Southeast  Level Estimated
Tue 12:41:00 AM 43.4938 111.6331 131° Southeast  Level Estimated
Tue 12:42:00 AM 43.4152 111.7571 131° Southeast  Level Estimated
Tue 12:43:00 AM 43.3365 111.8808 131° Southeast  Level Estimated
Tue 12:44:00 AM 43.2576 112.0041 131° Southeast  Level Estimated
Tue 12:45:00 AM 43.1786 112.1272 131° Southeast  Level Estimated
Tue 12:46:00 AM 43.0995 112.2498 131° Southeast  Level Estimated
Tue 12:47:00 AM 43.0203 112.3722 132° Southeast  Level Estimated
Tue 12:48:00 AM 42.9409 112.4943 132° Southeast  Level Estimated
Tue 12:49:00 AM 42.8614 112.6161 132° Southeast  Level Estimated
Tue 12:50:00 AM 42.7817 112.7375 132° Southeast  Level Estimated
Tue 12:51:00 AM 42.7020 112.8586 132° Southeast  Level Estimated
Tue 12:52:00 AM 42.6221 112.9795 132° Southeast  Level Estimated
Tue 12:53:00 AM 42.5420 113.1000 132° Southeast  Level Estimated
Tue 12:54:00 AM 42.4619 113.2202 132° Southeast  Level Estimated
Tue 12:55:00 AM 42.3816 113.3401 132° Southeast  Level Estimated
Tue 12:56:00 AM 42.3012 113.4596 132° Southeast  Level Estimated
Tue 12:57:00 AM 42.2207 113.5789 132° Southeast  Level Estimated
Tue 12:58:00 AM 42.1401 113.6979 132° Southeast  Level Estimated
Tue 12:59:00 AM 42.0593 113.8166 132° Southeast  Level Estimated
Tue 01:00:00 AM 41.9784 113.9350 133° Southeast  Level Estimated
Tue 01:01:00 AM 41.8974 114.0530 133° Southeast  Level Estimated
Tue 01:02:00 AM 41.8163 114.1708 133° Southeast  Level Estimated
Tue 01:03:00 AM 41.7350 114.2883 133° Southeast  Level Estimated
Tue 01:04:00 AM 41.6537 114.4054 133° Southeast  Level Estimated
Tue 01:05:00 AM 41.5722 114.5223 133° Southeast  Level Estimated
Tue 01:06:00 AM 41.4906 114.6389 133° Southeast  Level Estimated
Tue 01:07:00 AM 41.4089 114.7552 133° Southeast  Level Estimated
Tue 01:08:00 AM 41.3270 114.8712 133° Southeast  Level Estimated
Tue 01:09:00 AM 41.2451 114.9869 133° Southeast  Level Estimated
Tue 01:10:00 AM 41.1630 115.1023 133° Southeast  Level Estimated
Tue 01:11:00 AM 41.0808 115.2175 133° Southeast  Level Estimated
Tue 01:12:00 AM 40.9985 115.3323 133° Southeast  Level Estimated
Tue 01:13:00 AM 40.9161 115.4469 134° Southeast  Level Estimated
Tue 01:14:00 AM 40.8336 115.5611 134° Southeast  Level Estimated
Tue 01:15:00 AM 40.7509 115.6751 134° Southeast  Level Estimated
Tue 01:16:00 AM 40.6682 115.7888 134° Southeast  Level Estimated
Tue 01:17:00 AM 40.5853 115.9022 134° Southeast  Level Estimated
Tue 01:18:00 AM 40.5023 116.0154 134° Southeast  Level Estimated
Tue 01:19:00 AM 40.4193 116.1282 134° Southeast  Level Estimated
Tue 01:20:00 AM 40.3361 116.2408 134° Southeast  Level Estimated
Tue 01:21:00 AM 40.2528 116.3531 134° Southeast  Level Estimated
Tue 01:22:00 AM 40.1694 116.4651 134° Southeast  Level Estimated
Tue 01:23:00 AM 40.0858 116.5769 134° Southeast  Level Estimated
Tue 01:24:00 AM 40.0801 116.5846 134° Southeast  Level Estimated
Tue 01:25:00 AM 40.0801 116.5846 288° West  Level Estimated
Tue 01:26:00 AM 40.0801 116.5846 288° West  Level Estimated
Tue 01:27:00 AM 40.0801 116.5846 288° West  Level Estimated
Tue 01:28:00 AM 40.0801 116.5846 288° West  Level Estimated

Login

Don't have an account? Register now (free) for customized features, flight alerts, and more!